EJU68CA LIMC-EDDH
Flight info
| Callsign | EJU68CA |
|---|---|
| Flight time | 1h 20m |
| Altitude | 34000 |
| Route | PEPAG DCT ABESI N851 UTAVO DCT ROLSA/N0438F350 DCT LOKTA DCT TEDGO DCT HAREM DCT LOHRE DCT MASEK DCT ELNAT/N0432F340 P605 NOLGO NOLGO6A |
| Aircraft | A320/M-SDE3FGHIRWY/LB1 |
Departure
| Time | 2026-05-05 13:52 |
|---|---|
| Airport | Milan Malpensa International Airport (LIMC) |
Arrival
| Time | 2026-05-05 15:13 |
|---|---|
| Airport | Hamburg Helmut Schmidt Airport (EDDH) |
| Time | Latitude | Longitude | Altitude | Speed | Heading |
|---|---|---|---|---|---|
| 2026-05-05 13:12 | 45.64603 | 8.72504 | 716 ft | 0 kts | 259° |
| 2026-05-05 13:44 | 45.64604 | 8.72514 | 716 ft | 4 kts | 258° |
| 2026-05-05 13:44 | 45.64612 | 8.72550 | 716 ft | 4 kts | 245° |
| 2026-05-05 13:44 | 45.64626 | 8.72582 | 720 ft | 4 kts | 224° |
| 2026-05-05 13:45 | 45.64647 | 8.72602 | 719 ft | 4 kts | 190° |
| 2026-05-05 13:45 | 45.64662 | 8.72604 | 718 ft | 0 kts | 169° |
| 2026-05-05 13:47 | 45.64635 | 8.72611 | 720 ft | 7 kts | 169° |
| 2026-05-05 13:47 | 45.64577 | 8.72627 | 718 ft | 10 kts | 169° |
| 2026-05-05 13:47 | 45.64490 | 8.72629 | 716 ft | 13 kts | 215° |
| 2026-05-05 13:47 | 45.64457 | 8.72476 | 717 ft | 16 kts | 250° |
| 2026-05-05 13:48 | 45.64322 | 8.72455 | 717 ft | 31 kts | 169° |
| 2026-05-05 13:48 | 45.64104 | 8.72515 | 719 ft | 32 kts | 169° |
| 2026-05-05 13:48 | 45.63884 | 8.72576 | 719 ft | 32 kts | 169° |
| 2026-05-05 13:48 | 45.63659 | 8.72640 | 716 ft | 34 kts | 169° |
| 2026-05-05 13:49 | 45.63418 | 8.72707 | 719 ft | 36 kts | 169° |
| 2026-05-05 13:49 | 45.63172 | 8.72775 | 719 ft | 37 kts | 169° |
| 2026-05-05 13:49 | 45.62915 | 8.72847 | 717 ft | 40 kts | 169° |
| 2026-05-05 13:49 | 45.62617 | 8.72930 | 717 ft | 44 kts | 169° |
| 2026-05-05 13:50 | 45.62322 | 8.73012 | 719 ft | 43 kts | 169° |
| 2026-05-05 13:50 | 45.62059 | 8.73085 | 718 ft | 27 kts | 169° |
| 2026-05-05 13:50 | 45.61879 | 8.73137 | 720 ft | 22 kts | 168° |
| 2026-05-05 13:50 | 45.61759 | 8.73216 | 717 ft | 19 kts | 126° |
| 2026-05-05 13:51 | 45.61675 | 8.73353 | 719 ft | 18 kts | 129° |
| 2026-05-05 13:51 | 45.61602 | 8.73508 | 719 ft | 20 kts | 117° |
| 2026-05-05 13:51 | 45.61608 | 8.73700 | 720 ft | 20 kts | 50° |
| 2026-05-05 13:51 | 45.61748 | 8.73703 | 716 ft | 27 kts | 349° |
| 2026-05-05 13:52 | 45.62173 | 8.73585 | 718 ft | 95 kts | 349° |
| 2026-05-05 13:52 | 45.63007 | 8.73354 | 716 ft | 147 kts | 349° |
| 2026-05-05 13:52 | 45.64118 | 8.73047 | 1007 ft | 167 kts | 350° |
| 2026-05-05 13:52 | 45.65269 | 8.73086 | 1715 ft | 168 kts | 25° |
| 2026-05-05 13:53 | 45.66161 | 8.74162 | 2300 ft | 177 kts | 62° |
| 2026-05-05 13:53 | 45.66552 | 8.75864 | 2666 ft | 197 kts | 74° |
| 2026-05-05 13:53 | 45.67315 | 8.77540 | 3289 ft | 209 kts | 45° |
| 2026-05-05 13:53 | 45.68442 | 8.78891 | 4145 ft | 213 kts | 40° |
| 2026-05-05 13:54 | 45.69631 | 8.80180 | 4962 ft | 215 kts | 40° |
| 2026-05-05 13:54 | 45.70815 | 8.81462 | 5667 ft | 218 kts | 40° |
| 2026-05-05 13:54 | 45.71980 | 8.82856 | 6361 ft | 219 kts | 53° |
| 2026-05-05 13:54 | 45.72599 | 8.84829 | 6972 ft | 217 kts | 88° |
| 2026-05-05 13:55 | 45.72315 | 8.86990 | 7327 ft | 232 kts | 123° |
| 2026-05-05 13:55 | 45.71363 | 8.88903 | 7900 ft | 240 kts | 128° |
| 2026-05-05 13:55 | 45.70358 | 8.90848 | 8602 ft | 246 kts | 129° |
| 2026-05-05 13:55 | 45.69349 | 8.92814 | 9312 ft | 251 kts | 129° |
| 2026-05-05 13:56 | 45.68307 | 8.94850 | 10005 ft | 256 kts | 129° |
| 2026-05-05 13:56 | 45.67247 | 8.96927 | 10676 ft | 260 kts | 130° |
| 2026-05-05 13:56 | 45.66176 | 8.99033 | 11369 ft | 263 kts | 130° |
| 2026-05-05 13:56 | 45.65193 | 9.01269 | 12058 ft | 271 kts | 118° |
| 2026-05-05 13:57 | 45.64640 | 9.03897 | 12606 ft | 288 kts | 102° |
| 2026-05-05 13:57 | 45.64581 | 9.06888 | 12808 ft | 314 kts | 92° |
| 2026-05-05 13:57 | 45.64615 | 9.10130 | 12983 ft | 337 kts | 92° |
| 2026-05-05 13:57 | 45.64647 | 9.13599 | 13125 ft | 360 kts | 92° |
| 2026-05-05 13:58 | 45.64678 | 9.17265 | 13507 ft | 373 kts | 92° |
| 2026-05-05 13:58 | 45.64705 | 9.21003 | 14063 ft | 379 kts | 92° |
| 2026-05-05 13:58 | 45.64731 | 9.24799 | 14632 ft | 384 kts | 92° |
| 2026-05-05 13:58 | 45.64753 | 9.28636 | 15203 ft | 388 kts | 92° |
| 2026-05-05 13:59 | 45.64784 | 9.36329 | 16341 ft | 396 kts | 93° |
| 2026-05-05 13:59 | 45.64795 | 9.40286 | 17037 ft | 400 kts | 93° |
| 2026-05-05 14:00 | 45.64814 | 9.48280 | 18107 ft | 409 kts | 93° |
| 2026-05-05 14:00 | 45.64819 | 9.51035 | 18464 ft | 412 kts | 94° |
| 2026-05-05 14:00 | 45.64826 | 9.56483 | 18967 ft | 416 kts | 94° |
| 2026-05-05 14:00 | 45.64832 | 9.60629 | 19465 ft | 419 kts | 93° |
| 2026-05-05 14:01 | 45.65231 | 9.64778 | 19932 ft | 428 kts | 73° |
| 2026-05-05 14:01 | 45.66675 | 9.68499 | 20384 ft | 433 kts | 49° |
| 2026-05-05 14:01 | 45.68996 | 9.71213 | 20831 ft | 432 kts | 25° |
| 2026-05-05 14:01 | 45.71827 | 9.72488 | 21246 ft | 425 kts | 1° |
| 2026-05-05 14:02 | 45.74725 | 9.72148 | 21699 ft | 415 kts | 337° |
| 2026-05-05 14:02 | 45.77237 | 9.70286 | 22164 ft | 403 kts | 314° |
| 2026-05-05 14:02 | 45.79092 | 9.67342 | 22607 ft | 396 kts | 298° |
| 2026-05-05 14:02 | 45.80386 | 9.63882 | 23064 ft | 394 kts | 290° |
| 2026-05-05 14:03 | 45.81558 | 9.60321 | 23568 ft | 397 kts | 289° |
| 2026-05-05 14:03 | 45.82708 | 9.56763 | 23994 ft | 400 kts | 289° |
| 2026-05-05 14:03 | 45.83867 | 9.53128 | 24465 ft | 402 kts | 289° |
| 2026-05-05 14:03 | 45.85026 | 9.49466 | 24891 ft | 404 kts | 289° |
| 2026-05-05 14:04 | 45.86188 | 9.45794 | 25303 ft | 406 kts | 289° |
| 2026-05-05 14:04 | 45.87354 | 9.42107 | 25731 ft | 406 kts | 289° |
| 2026-05-05 14:04 | 45.88526 | 9.38407 | 26129 ft | 407 kts | 289° |
| 2026-05-05 14:04 | 45.89703 | 9.34692 | 26550 ft | 409 kts | 289° |
| 2026-05-05 14:05 | 45.90883 | 9.30971 | 26958 ft | 410 kts | 289° |
| 2026-05-05 14:05 | 45.92066 | 9.27244 | 27363 ft | 411 kts | 289° |
| 2026-05-05 14:05 | 45.93249 | 9.23507 | 27741 ft | 412 kts | 288° |
| 2026-05-05 14:05 | 45.94435 | 9.19745 | 28074 ft | 414 kts | 288° |
| 2026-05-05 14:06 | 45.95668 | 9.15999 | 28429 ft | 419 kts | 293° |
| 2026-05-05 14:06 | 45.97360 | 9.12533 | 28812 ft | 430 kts | 304° |
| 2026-05-05 14:06 | 45.99595 | 9.09588 | 29152 ft | 443 kts | 317° |
| 2026-05-05 14:06 | 46.02272 | 9.07380 | 29518 ft | 457 kts | 330° |
| 2026-05-05 14:07 | 46.05362 | 9.06028 | 29828 ft | 472 kts | 344° |
| 2026-05-05 14:07 | 46.08641 | 9.05439 | 30108 ft | 477 kts | 347° |
| 2026-05-05 14:07 | 46.11951 | 9.04910 | 30351 ft | 479 kts | 347° |
| 2026-05-05 14:07 | 46.15272 | 9.04380 | 30593 ft | 482 kts | 348° |
| 2026-05-05 14:08 | 46.18613 | 9.03863 | 30805 ft | 484 kts | 348° |
| 2026-05-05 14:08 | 46.21971 | 9.03395 | 31100 ft | 485 kts | 349° |
| 2026-05-05 14:08 | 46.25337 | 9.02964 | 31392 ft | 485 kts | 349° |
| 2026-05-05 14:08 | 46.28708 | 9.02544 | 31719 ft | 485 kts | 349° |
| 2026-05-05 14:09 | 46.32073 | 9.02122 | 32025 ft | 486 kts | 349° |
| 2026-05-05 14:09 | 46.35439 | 9.01688 | 32319 ft | 486 kts | 349° |
| 2026-05-05 14:09 | 46.38808 | 9.01242 | 32584 ft | 486 kts | 349° |
| 2026-05-05 14:09 | 46.42175 | 9.00789 | 32831 ft | 486 kts | 349° |
| 2026-05-05 14:10 | 46.45542 | 9.00333 | 33116 ft | 487 kts | 349° |
| 2026-05-05 14:10 | 46.48912 | 8.99875 | 33333 ft | 487 kts | 349° |
| 2026-05-05 14:10 | 46.52297 | 8.99416 | 33641 ft | 488 kts | 349° |
| 2026-05-05 14:10 | 46.55680 | 8.98956 | 33908 ft | 489 kts | 349° |
| 2026-05-05 14:11 | 46.62415 | 8.98038 | 33957 ft | 484 kts | 349° |
| 2026-05-05 14:11 | 46.69117 | 8.97133 | 33941 ft | 484 kts | 349° |
| 2026-05-05 14:12 | 46.75821 | 8.96229 | 33934 ft | 483 kts | 349° |
| 2026-05-05 14:12 | 46.82457 | 8.95326 | 33901 ft | 482 kts | 349° |
| 2026-05-05 14:13 | 46.89135 | 8.94408 | 33893 ft | 482 kts | 350° |
| 2026-05-05 14:13 | 46.95811 | 8.93490 | 33881 ft | 482 kts | 349° |
| 2026-05-05 14:14 | 47.02478 | 8.92579 | 33873 ft | 481 kts | 349° |
| 2026-05-05 14:14 | 47.09144 | 8.91661 | 33881 ft | 480 kts | 351° |
| 2026-05-05 14:15 | 47.15788 | 8.90741 | 33880 ft | 479 kts | 351° |
| 2026-05-05 14:15 | 47.22444 | 8.89824 | 34176 ft | 481 kts | 351° |
| 2026-05-05 14:16 | 47.25776 | 8.89375 | 34474 ft | 481 kts | 353° |
| 2026-05-05 14:16 | 47.27993 | 8.89286 | 34698 ft | 482 kts | 359° |
| 2026-05-05 14:16 | 47.31340 | 8.89737 | 34992 ft | 483 kts | 8° |
| 2026-05-05 14:16 | 47.34631 | 8.90761 | 35239 ft | 483 kts | 11° |
| 2026-05-05 14:17 | 47.37911 | 8.91849 | 35478 ft | 483 kts | 11° |
| 2026-05-05 14:17 | 47.41194 | 8.92939 | 35710 ft | 483 kts | 11° |
| 2026-05-05 14:17 | 47.44473 | 8.94027 | 35843 ft | 483 kts | 11° |
| 2026-05-05 14:17 | 47.47748 | 8.95113 | 35862 ft | 481 kts | 11° |
| 2026-05-05 14:18 | 47.54270 | 8.97282 | 35856 ft | 480 kts | 11° |
| 2026-05-05 14:18 | 47.60742 | 8.99434 | 35855 ft | 480 kts | 11° |
| 2026-05-05 14:19 | 47.66993 | 9.01522 | 35852 ft | 480 kts | 12° |
| 2026-05-05 14:19 | 47.73584 | 9.03732 | 35849 ft | 490 kts | 12° |
| 2026-05-05 14:20 | 47.79960 | 9.05863 | 35845 ft | 496 kts | 12° |
| 2026-05-05 14:20 | 47.86657 | 9.08099 | 35845 ft | 497 kts | 12° |
| 2026-05-05 14:21 | 47.93402 | 9.10378 | 35844 ft | 496 kts | 12° |
| 2026-05-05 14:21 | 48.00135 | 9.12667 | 35843 ft | 496 kts | 12° |
| 2026-05-05 14:22 | 48.06876 | 9.14949 | 35848 ft | 496 kts | 12° |
| 2026-05-05 14:22 | 48.13617 | 9.17239 | 35857 ft | 496 kts | 12° |
| 2026-05-05 14:23 | 48.20424 | 9.18920 | 35853 ft | 496 kts | 6° |
| 2026-05-05 14:23 | 48.27276 | 9.20064 | 35852 ft | 496 kts | 6° |
| 2026-05-05 14:24 | 48.33262 | 9.21067 | 35852 ft | 496 kts | 6° |
| 2026-05-05 14:24 | 48.40107 | 9.22222 | 35850 ft | 496 kts | 6° |
| 2026-05-05 14:25 | 48.46921 | 9.23380 | 35850 ft | 496 kts | 6° |
| 2026-05-05 14:25 | 48.53780 | 9.24553 | 35870 ft | 496 kts | 6° |
| 2026-05-05 14:26 | 48.60633 | 9.25718 | 35874 ft | 496 kts | 6° |
| 2026-05-05 14:26 | 48.67504 | 9.26841 | 35872 ft | 496 kts | 5° |
| 2026-05-05 14:27 | 48.74373 | 9.27863 | 35873 ft | 496 kts | 5° |
| 2026-05-05 14:27 | 48.81255 | 9.28879 | 35868 ft | 496 kts | 5° |
| 2026-05-05 14:28 | 48.88125 | 9.29924 | 35863 ft | 496 kts | 5° |
| 2026-05-05 14:28 | 48.95000 | 9.30993 | 35860 ft | 496 kts | 5° |
| 2026-05-05 14:29 | 49.01752 | 9.32050 | 35854 ft | 496 kts | 5° |
| 2026-05-05 14:29 | 49.08625 | 9.33115 | 35854 ft | 496 kts | 5° |
| 2026-05-05 14:30 | 49.15493 | 9.34167 | 35847 ft | 496 kts | 5° |
| 2026-05-05 14:30 | 49.22364 | 9.35236 | 35849 ft | 496 kts | 5° |
| 2026-05-05 14:31 | 49.29252 | 9.36317 | 35869 ft | 497 kts | 5° |
| 2026-05-05 14:31 | 49.36138 | 9.37387 | 35864 ft | 497 kts | 5° |
| 2026-05-05 14:32 | 49.43024 | 9.38470 | 35845 ft | 497 kts | 5° |
| 2026-05-05 14:32 | 49.49903 | 9.39557 | 35833 ft | 497 kts | 5° |
| 2026-05-05 14:33 | 49.56733 | 9.40635 | 35833 ft | 497 kts | 5° |
| 2026-05-05 14:33 | 49.63619 | 9.41721 | 35835 ft | 497 kts | 5° |
| 2026-05-05 14:34 | 49.70508 | 9.42819 | 35843 ft | 498 kts | 5° |
| 2026-05-05 14:34 | 49.77390 | 9.43924 | 35823 ft | 496 kts | 5° |
| 2026-05-05 14:35 | 49.84260 | 9.45027 | 35827 ft | 496 kts | 5° |
| 2026-05-05 14:35 | 49.91136 | 9.46121 | 35830 ft | 496 kts | 5° |
| 2026-05-05 14:36 | 49.98003 | 9.47225 | 35826 ft | 496 kts | 5° |
| 2026-05-05 14:36 | 50.04870 | 9.48336 | 35832 ft | 496 kts | 5° |
| 2026-05-05 14:37 | 50.11737 | 9.49453 | 35829 ft | 496 kts | 5° |
| 2026-05-05 14:37 | 50.18614 | 9.50626 | 35823 ft | 496 kts | 5° |
| 2026-05-05 14:38 | 50.25483 | 9.51794 | 35823 ft | 497 kts | 5° |
| 2026-05-05 14:38 | 50.32308 | 9.52942 | 35821 ft | 497 kts | 5° |
| 2026-05-05 14:39 | 50.39194 | 9.54092 | 35820 ft | 497 kts | 5° |
| 2026-05-05 14:39 | 50.46076 | 9.55246 | 35819 ft | 498 kts | 5° |
| 2026-05-05 14:40 | 50.52966 | 9.56423 | 35826 ft | 497 kts | 4° |
| 2026-05-05 14:40 | 50.59850 | 9.57603 | 35830 ft | 497 kts | 4° |
| 2026-05-05 14:41 | 50.66737 | 9.58789 | 35829 ft | 497 kts | 4° |
| 2026-05-05 14:41 | 50.73618 | 9.59958 | 35824 ft | 497 kts | 4° |
| 2026-05-05 14:42 | 50.80500 | 9.61232 | 35827 ft | 498 kts | 5° |
| 2026-05-05 14:42 | 50.87369 | 9.62611 | 35827 ft | 498 kts | 5° |
| 2026-05-05 14:43 | 50.94239 | 9.63973 | 35838 ft | 497 kts | 5° |
| 2026-05-05 14:43 | 51.01111 | 9.65312 | 35834 ft | 497 kts | 5° |
| 2026-05-05 14:44 | 51.07962 | 9.66638 | 35855 ft | 495 kts | 5° |
| 2026-05-05 14:44 | 51.14788 | 9.67977 | 35856 ft | 494 kts | 5° |
| 2026-05-05 14:45 | 51.21558 | 9.69315 | 35858 ft | 493 kts | 4° |
| 2026-05-05 14:45 | 51.28329 | 9.70484 | 35834 ft | 483 kts | 2° |
| 2026-05-05 14:46 | 51.34987 | 9.71495 | 35836 ft | 479 kts | 2° |
| 2026-05-05 14:46 | 51.41610 | 9.72520 | 35851 ft | 478 kts | 2° |
| 2026-05-05 14:47 | 51.48233 | 9.73601 | 35838 ft | 478 kts | 2° |
| 2026-05-05 14:47 | 51.54858 | 9.74827 | 35847 ft | 479 kts | 4° |
| 2026-05-05 14:48 | 51.61471 | 9.76135 | 35848 ft | 479 kts | 3° |
| 2026-05-05 14:48 | 51.68091 | 9.77421 | 35869 ft | 478 kts | 3° |
| 2026-05-05 14:49 | 51.74658 | 9.78663 | 35877 ft | 478 kts | 2° |
| 2026-05-05 14:49 | 51.81259 | 9.79900 | 35881 ft | 477 kts | 3° |
| 2026-05-05 14:50 | 51.87857 | 9.81161 | 35655 ft | 477 kts | 2° |
| 2026-05-05 14:50 | 51.91150 | 9.81801 | 35401 ft | 476 kts | 2° |
| 2026-05-05 14:50 | 51.94432 | 9.82442 | 35150 ft | 475 kts | 2° |
| 2026-05-05 14:51 | 51.97713 | 9.83082 | 34909 ft | 475 kts | 2° |
| 2026-05-05 14:51 | 52.01002 | 9.83715 | 34662 ft | 476 kts | 2° |
| 2026-05-05 14:51 | 52.04289 | 9.84346 | 34419 ft | 476 kts | 2° |
| 2026-05-05 14:51 | 52.07582 | 9.84983 | 34189 ft | 477 kts | 2° |
| 2026-05-05 14:52 | 52.10884 | 9.85628 | 33955 ft | 478 kts | 2° |
| 2026-05-05 14:52 | 52.14194 | 9.86278 | 33246 ft | 481 kts | 2° |
| 2026-05-05 14:52 | 52.17520 | 9.86934 | 32625 ft | 478 kts | 2° |
| 2026-05-05 14:52 | 52.20807 | 9.87590 | 32060 ft | 474 kts | 2° |
| 2026-05-05 14:53 | 52.24068 | 9.88250 | 31462 ft | 471 kts | 5° |
| 2026-05-05 14:53 | 52.27272 | 9.89383 | 30876 ft | 471 kts | 11° |
| 2026-05-05 14:53 | 52.30424 | 9.90762 | 30286 ft | 467 kts | 12° |
| 2026-05-05 14:53 | 52.33557 | 9.92136 | 29667 ft | 464 kts | 12° |
| 2026-05-05 14:54 | 52.36659 | 9.93499 | 29102 ft | 459 kts | 12° |
| 2026-05-05 14:54 | 52.39734 | 9.94852 | 28526 ft | 454 kts | 12° |
| 2026-05-05 14:54 | 52.42734 | 9.96175 | 27975 ft | 450 kts | 12° |
| 2026-05-05 14:54 | 52.45781 | 9.97522 | 27421 ft | 445 kts | 12° |
| 2026-05-05 14:55 | 52.48757 | 9.98841 | 26881 ft | 441 kts | 12° |
| 2026-05-05 14:55 | 52.51664 | 10.00131 | 26363 ft | 436 kts | 12° |
| 2026-05-05 14:55 | 52.54595 | 10.01038 | 26157 ft | 420 kts | 2° |
| 2026-05-05 14:55 | 52.57471 | 10.01466 | 25804 ft | 412 kts | 2° |
| 2026-05-05 14:56 | 52.60313 | 10.01895 | 25320 ft | 409 kts | 2° |
| 2026-05-05 14:56 | 52.63139 | 10.02323 | 24831 ft | 406 kts | 2° |
| 2026-05-05 14:56 | 52.65942 | 10.02746 | 24357 ft | 403 kts | 2° |
| 2026-05-05 14:56 | 52.68730 | 10.03159 | 23881 ft | 400 kts | 2° |
| 2026-05-05 14:57 | 52.71497 | 10.03565 | 23397 ft | 398 kts | 2° |
| 2026-05-05 14:57 | 52.74248 | 10.03970 | 22902 ft | 395 kts | 2° |
| 2026-05-05 14:57 | 52.76975 | 10.04378 | 22434 ft | 391 kts | 2° |
| 2026-05-05 14:57 | 52.79673 | 10.04784 | 21967 ft | 387 kts | 2° |
| 2026-05-05 14:58 | 52.82346 | 10.05185 | 21494 ft | 385 kts | 2° |
| 2026-05-05 14:58 | 52.85002 | 10.05583 | 21023 ft | 382 kts | 2° |
| 2026-05-05 14:58 | 52.87647 | 10.05976 | 20542 ft | 380 kts | 2° |
| 2026-05-05 14:58 | 52.90273 | 10.06364 | 20060 ft | 378 kts | 2° |
| 2026-05-05 14:59 | 52.92887 | 10.06754 | 19579 ft | 376 kts | 2° |
| 2026-05-05 14:59 | 52.95492 | 10.07147 | 19100 ft | 375 kts | 2° |
| 2026-05-05 14:59 | 52.98090 | 10.07534 | 18622 ft | 374 kts | 2° |
| 2026-05-05 14:59 | 53.00687 | 10.07920 | 18132 ft | 374 kts | 3° |
| 2026-05-05 15:00 | 53.03277 | 10.08309 | 17618 ft | 372 kts | 3° |
| 2026-05-05 15:00 | 53.04982 | 10.08567 | 17310 ft | 370 kts | 3° |
| 2026-05-05 15:00 | 53.08398 | 10.09089 | 16685 ft | 367 kts | 3° |
| 2026-05-05 15:00 | 53.10897 | 10.09471 | 16234 ft | 364 kts | 3° |
| 2026-05-05 15:01 | 53.13413 | 10.09849 | 15779 ft | 362 kts | 3° |
| 2026-05-05 15:01 | 53.15915 | 10.10220 | 15328 ft | 361 kts | 3° |
| 2026-05-05 15:01 | 53.18416 | 10.10590 | 14878 ft | 360 kts | 3° |
| 2026-05-05 15:01 | 53.20912 | 10.10965 | 14423 ft | 359 kts | 4° |
| 2026-05-05 15:02 | 53.23395 | 10.11338 | 14016 ft | 356 kts | 2° |
| 2026-05-05 15:02 | 53.25059 | 10.11320 | 13760 ft | 351 kts | 351° |
| 2026-05-05 15:02 | 53.27310 | 10.10104 | 13346 ft | 343 kts | 328° |
| 2026-05-05 15:02 | 53.29112 | 10.07585 | 12922 ft | 337 kts | 308° |
| 2026-05-05 15:03 | 53.30525 | 10.04478 | 12504 ft | 334 kts | 304° |
| 2026-05-05 15:03 | 53.31884 | 10.01343 | 12094 ft | 332 kts | 304° |
| 2026-05-05 15:03 | 53.33231 | 9.98235 | 11687 ft | 328 kts | 304° |
| 2026-05-05 15:03 | 53.34569 | 9.95170 | 11294 ft | 324 kts | 304° |
| 2026-05-05 15:04 | 53.35892 | 9.92138 | 10889 ft | 321 kts | 303° |
| 2026-05-05 15:04 | 53.36900 | 9.88853 | 10176 ft | 318 kts | 283° |
| 2026-05-05 15:04 | 53.37248 | 9.85226 | 9280 ft | 314 kts | 275° |
| 2026-05-05 15:04 | 53.37464 | 9.81588 | 8363 ft | 312 kts | 274° |
| 2026-05-05 15:05 | 53.37840 | 9.74394 | 6629 ft | 307 kts | 275° |
| 2026-05-05 15:05 | 53.38000 | 9.70865 | 5866 ft | 301 kts | 274° |
| 2026-05-05 15:05 | 53.38197 | 9.67417 | 5273 ft | 290 kts | 283° |
| 2026-05-05 15:06 | 53.39019 | 9.64453 | 4805 ft | 276 kts | 310° |
| 2026-05-05 15:06 | 53.40467 | 9.62496 | 4422 ft | 265 kts | 334° |
| 2026-05-05 15:06 | 53.42215 | 9.61714 | 4071 ft | 259 kts | 359° |
| 2026-05-05 15:06 | 53.43979 | 9.62160 | 3878 ft | 256 kts | 21° |
| 2026-05-05 15:07 | 53.45495 | 9.63697 | 3678 ft | 254 kts | 43° |
| 2026-05-05 15:07 | 53.46628 | 9.65850 | 3467 ft | 237 kts | 49° |
| 2026-05-05 15:07 | 53.47654 | 9.67908 | 3264 ft | 221 kts | 49° |
| 2026-05-05 15:07 | 53.48615 | 9.69831 | 3070 ft | 209 kts | 49° |
| 2026-05-05 15:08 | 53.49519 | 9.71637 | 3010 ft | 191 kts | 49° |
| 2026-05-05 15:08 | 53.50333 | 9.73267 | 3031 ft | 174 kts | 49° |
| 2026-05-05 15:08 | 53.51095 | 9.74792 | 3018 ft | 171 kts | 49° |
| 2026-05-05 15:08 | 53.51852 | 9.76306 | 3004 ft | 169 kts | 50° |
| 2026-05-05 15:09 | 53.52608 | 9.77821 | 2911 ft | 169 kts | 49° |
| 2026-05-05 15:09 | 53.53360 | 9.79331 | 2725 ft | 167 kts | 50° |
| 2026-05-05 15:09 | 53.54104 | 9.80824 | 2510 ft | 165 kts | 50° |
| 2026-05-05 15:09 | 53.54839 | 9.82299 | 2290 ft | 164 kts | 50° |
| 2026-05-05 15:10 | 53.55569 | 9.83767 | 2065 ft | 163 kts | 50° |
| 2026-05-05 15:10 | 53.56290 | 9.85215 | 1857 ft | 158 kts | 50° |
| 2026-05-05 15:10 | 53.56957 | 9.86557 | 1632 ft | 142 kts | 50° |
| 2026-05-05 15:10 | 53.57570 | 9.87791 | 1455 ft | 135 kts | 50° |
| 2026-05-05 15:11 | 53.58170 | 9.88998 | 1266 ft | 133 kts | 49° |
| 2026-05-05 15:11 | 53.58762 | 9.90198 | 1071 ft | 133 kts | 50° |
| 2026-05-05 15:11 | 53.59354 | 9.91389 | 882 ft | 132 kts | 49° |
| 2026-05-05 15:11 | 53.59953 | 9.92585 | 700 ft | 133 kts | 52° |
| 2026-05-05 15:12 | 53.60538 | 9.93782 | 517 ft | 131 kts | 51° |
| 2026-05-05 15:12 | 53.61145 | 9.94982 | 330 ft | 134 kts | 50° |
| 2026-05-05 15:12 | 53.61740 | 9.96190 | 156 ft | 134 kts | 51° |
| 2026-05-05 15:12 | 53.62331 | 9.97383 | 51 ft | 132 kts | 52° |
| 2026-05-05 15:13 | 53.62838 | 9.98425 | 44 ft | 83 kts | 51° |
| 2026-05-05 15:13 | 53.63112 | 9.98979 | 46 ft | 54 kts | 50° |
| 2026-05-05 15:13 | 53.63336 | 9.99441 | 47 ft | 48 kts | 51° |
| 2026-05-05 15:13 | 53.63510 | 9.99783 | 50 ft | 22 kts | 50° |
| 2026-05-05 15:14 | 53.63573 | 9.99957 | 50 ft | 14 kts | 97° |
| 2026-05-05 15:14 | 53.63505 | 10.00077 | 49 ft | 4 kts | 140° |
| 2026-05-05 15:14 | 53.63504 | 10.00078 | 49 ft | 0 kts | 140° |
| 2026-05-05 15:15 | 53.63503 | 10.00079 | 49 ft | 1 kts | 140° |
| 2026-05-05 15:15 | 53.63492 | 10.00095 | 48 ft | 3 kts | 140° |
| 2026-05-05 15:15 | 53.63477 | 10.00116 | 48 ft | 2 kts | 140° |
| 2026-05-05 15:16 | 53.63461 | 10.00137 | 48 ft | 8 kts | 149° |
| 2026-05-05 15:16 | 53.63350 | 10.00225 | 48 ft | 20 kts | 163° |
| 2026-05-05 15:16 | 53.63207 | 10.00247 | 48 ft | 21 kts | 176° |
| 2026-05-05 15:16 | 53.63083 | 10.00295 | 48 ft | 15 kts | 120° |
| 2026-05-05 15:17 | 53.63074 | 10.00374 | 48 ft | 0 kts | 93° |
| 2026-05-05 15:17 | 53.63074 | 10.00375 | 48 ft | 0 kts | 93° |